createdAt,value
2023-02-22T00:12:40.679Z,23.80
2023-02-22T00:34:23.899Z,21.70
2023-02-22T00:56:07.918Z,22.80
2023-02-22T01:17:53.721Z,22.00
2023-02-22T01:39:36.771Z,21.60
2023-02-22T02:01:23.866Z,26.20
2023-02-22T02:23:24.403Z,20.70
2023-02-22T02:45:15.005Z,30.50
2023-02-22T03:07:13.426Z,27.40
2023-02-22T03:28:57.616Z,24.20
2023-02-22T03:50:41.137Z,33.30
2023-02-22T04:12:24.895Z,30.50
2023-02-22T04:34:13.321Z,26.20
2023-02-22T04:55:57.740Z,33.20
2023-02-22T05:40:03.207Z,25.60
2023-02-22T06:01:48.980Z,23.70
2023-02-22T06:23:34.834Z,34.00
2023-02-22T06:45:21.085Z,23.30
2023-02-22T07:07:07.118Z,27.20
2023-02-22T07:41:22.984Z,36.60
2023-02-22T08:03:11.166Z,28.10
2023-02-22T08:24:56.899Z,31.60
2023-02-22T08:46:42.749Z,29.60
2023-02-22T09:08:28.523Z,27.80
2023-02-22T09:30:20.402Z,32.80
2023-02-22T09:52:11.615Z,25.40
2023-02-22T10:14:06.490Z,27.00
2023-02-22T10:35:54.997Z,30.80
2023-02-22T10:57:42.414Z,27.20
2023-02-22T11:19:29.989Z,29.00
2023-02-22T11:41:19.542Z,27.70
2023-02-22T12:03:28.966Z,25.50
2023-02-22T12:25:22.900Z,22.60
2023-02-22T12:47:12.059Z,22.20
2023-02-22T13:09:08.502Z,24.60
2023-02-22T13:31:09.047Z,22.30
2023-02-22T13:52:57.178Z,19.10
2023-02-22T14:15:32.690Z,17.80
2023-02-22T14:37:25.141Z,22.00
2023-02-22T14:59:19.643Z,17.80
2023-02-22T15:21:13.472Z,22.60
2023-02-22T15:43:00.009Z,16.80
2023-02-22T16:04:54.566Z,19.30
2023-02-22T16:27:04.701Z,20.40
2023-02-22T16:48:50.415Z,23.40
2023-02-22T17:10:37.058Z,21.00
2023-02-22T17:32:22.826Z,23.70
2023-02-22T17:54:10.359Z,27.00
2023-02-22T18:16:00.246Z,24.50
2023-02-22T18:37:46.203Z,32.20
2023-02-22T18:59:31.936Z,35.40
2023-02-22T19:21:18.304Z,36.80
2023-02-22T19:43:04.079Z,28.40
2023-02-22T20:04:51.406Z,29.20
2023-02-22T20:26:38.998Z,29.50
2023-02-22T20:48:24.885Z,31.20
2023-02-22T21:10:11.421Z,29.20
2023-02-22T21:31:57.718Z,29.20
2023-02-22T21:53:47.067Z,31.40
2023-02-22T22:15:36.966Z,33.50
2023-02-22T22:37:22.680Z,34.70
2023-02-22T22:59:09.871Z,43.10
2023-02-22T23:41:18.605Z,37.80
